sensor_id;sensor_type;location;lat;lon;timestamp;P1;durP1;ratioP1;P2;durP2;ratioP2
17510;SDS011;8873;48.818;9.422;2024-02-14T00:01:37;8.93;;;4.70;;
17510;SDS011;8873;48.818;9.422;2024-02-14T00:04:05;6.60;;;4.30;;
17510;SDS011;8873;48.818;9.422;2024-02-14T00:06:34;8.27;;;4.27;;
17510;SDS011;8873;48.818;9.422;2024-02-14T00:09:02;5.97;;;4.20;;
17510;SDS011;8873;48.818;9.422;2024-02-14T00:11:30;11.10;;;4.68;;
17510;SDS011;8873;48.818;9.422;2024-02-14T00:13:59;6.63;;;4.13;;
17510;SDS011;8873;48.818;9.422;2024-02-14T00:16:27;6.47;;;4.10;;
17510;SDS011;8873;48.818;9.422;2024-02-14T00:18:56;6.10;;;4.17;;
17510;SDS011;8873;48.818;9.422;2024-02-14T00:21:25;6.80;;;4.47;;
17510;SDS011;8873;48.818;9.422;2024-02-14T00:23:53;7.80;;;4.70;;
17510;SDS011;8873;48.818;9.422;2024-02-14T00:26:20;6.00;;;4.00;;
17510;SDS011;8873;48.818;9.422;2024-02-14T00:28:48;6.83;;;4.13;;
17510;SDS011;8873;48.818;9.422;2024-02-14T00:31:17;13.32;;;5.25;;
17510;SDS011;8873;48.818;9.422;2024-02-14T00:33:45;4.68;;;3.65;;
17510;SDS011;8873;48.818;9.422;2024-02-14T00:36:13;7.70;;;4.70;;
17510;SDS011;8873;48.818;9.422;2024-02-14T00:38:41;7.43;;;4.20;;
17510;SDS011;8873;48.818;9.422;2024-02-14T00:41:10;9.52;;;4.70;;
17510;SDS011;8873;48.818;9.422;2024-02-14T00:43:38;9.88;;;4.43;;
17510;SDS011;8873;48.818;9.422;2024-02-14T00:46:05;16.83;;;5.82;;
17510;SDS011;8873;48.818;9.422;2024-02-14T00:48:34;7.47;;;5.03;;
17510;SDS011;8873;48.818;9.422;2024-02-14T00:51:02;9.20;;;4.77;;
17510;SDS011;8873;48.818;9.422;2024-02-14T00:53:30;10.02;;;4.82;;
17510;SDS011;8873;48.818;9.422;2024-02-14T00:55:58;7.85;;;4.20;;
17510;SDS011;8873;48.818;9.422;2024-02-14T00:58:25;7.30;;;4.20;;
17510;SDS011;8873;48.818;9.422;2024-02-14T01:00:53;5.95;;;4.28;;
17510;SDS011;8873;48.818;9.422;2024-02-14T01:03:20;5.35;;;3.47;;
17510;SDS011;8873;48.818;9.422;2024-02-14T01:05:50;9.17;;;4.60;;
17510;SDS011;8873;48.818;9.422;2024-02-14T01:08:18;14.85;;;4.15;;
17510;SDS011;8873;48.818;9.422;2024-02-14T01:10:47;6.93;;;4.22;;
17510;SDS011;8873;48.818;9.422;2024-02-14T01:13:15;8.57;;;4.40;;
17510;SDS011;8873;48.818;9.422;2024-02-14T01:15:43;7.10;;;4.22;;
17510;SDS011;8873;48.818;9.422;2024-02-14T01:18:11;6.50;;;3.83;;
17510;SDS011;8873;48.818;9.422;2024-02-14T01:20:38;5.27;;;4.00;;
17510;SDS011;8873;48.818;9.422;2024-02-14T01:23:12;5.85;;;3.95;;
17510;SDS011;8873;48.818;9.422;2024-02-14T01:25:39;7.30;;;4.18;;
17510;SDS011;8873;48.818;9.422;2024-02-14T01:28:08;4.53;;;3.90;;
17510;SDS011;8873;48.818;9.422;2024-02-14T01:30:36;9.57;;;4.22;;
17510;SDS011;8873;48.818;9.422;2024-02-14T01:33:04;6.38;;;4.28;;
17510;SDS011;8873;48.818;9.422;2024-02-14T01:35:32;6.57;;;4.00;;
17510;SDS011;8873;48.818;9.422;2024-02-14T01:37:59;7.28;;;4.28;;
17510;SDS011;8873;48.818;9.422;2024-02-14T01:40:30;4.40;;;3.92;;
17510;SDS011;8873;48.818;9.422;2024-02-14T01:43:00;5.57;;;4.43;;
17510;SDS011;8873;48.818;9.422;2024-02-14T01:45:29;8.63;;;4.18;;
17510;SDS011;8873;48.818;9.422;2024-02-14T01:47:57;4.97;;;3.72;;
17510;SDS011;8873;48.818;9.422;2024-02-14T01:50:25;5.15;;;3.90;;
17510;SDS011;8873;48.818;9.422;2024-02-14T01:52:56;8.75;;;4.75;;
17510;SDS011;8873;48.818;9.422;2024-02-14T01:55:25;7.63;;;3.88;;
17510;SDS011;8873;48.818;9.422;2024-02-14T01:57:55;7.18;;;4.15;;
17510;SDS011;8873;48.818;9.422;2024-02-14T02:00:23;11.18;;;4.90;;
17510;SDS011;8873;48.818;9.422;2024-02-14T02:02:56;6.57;;;3.83;;
17510;SDS011;8873;48.818;9.422;2024-02-14T02:05:24;9.10;;;4.30;;
17510;SDS011;8873;48.818;9.422;2024-02-14T02:07:52;6.30;;;4.45;;
17510;SDS011;8873;48.818;9.422;2024-02-14T02:10:20;15.68;;;4.35;;
17510;SDS011;8873;48.818;9.422;2024-02-14T02:12:48;5.47;;;4.10;;
17510;SDS011;8873;48.818;9.422;2024-02-14T02:15:18;4.55;;;3.67;;
17510;SDS011;8873;48.818;9.422;2024-02-14T02:17:47;5.50;;;4.18;;
17510;SDS011;8873;48.818;9.422;2024-02-14T02:20:19;7.00;;;4.30;;
17510;SDS011;8873;48.818;9.422;2024-02-14T02:22:48;5.53;;;3.67;;
17510;SDS011;8873;48.818;9.422;2024-02-14T02:25:17;7.25;;;3.97;;
17510;SDS011;8873;48.818;9.422;2024-02-14T02:27:54;5.53;;;3.72;;
17510;SDS011;8873;48.818;9.422;2024-02-14T02:30:23;7.20;;;4.22;;
17510;SDS011;8873;48.818;9.422;2024-02-14T02:32:53;7.35;;;4.43;;
17510;SDS011;8873;48.818;9.422;2024-02-14T02:35:22;10.30;;;4.75;;
17510;SDS011;8873;48.818;9.422;2024-02-14T02:37:52;6.78;;;4.10;;
17510;SDS011;8873;48.818;9.422;2024-02-14T02:40:19;4.82;;;3.65;;
17510;SDS011;8873;48.818;9.422;2024-02-14T02:42:50;4.70;;;3.90;;
17510;SDS011;8873;48.818;9.422;2024-02-14T02:45:22;6.18;;;4.00;;
17510;SDS011;8873;48.818;9.422;2024-02-14T02:47:50;6.53;;;3.80;;
17510;SDS011;8873;48.818;9.422;2024-02-14T02:50:24;7.38;;;3.90;;
17510;SDS011;8873;48.818;9.422;2024-02-14T02:52:54;6.10;;;4.17;;
17510;SDS011;8873;48.818;9.422;2024-02-14T02:55:23;6.68;;;4.53;;
17510;SDS011;8873;48.818;9.422;2024-02-14T02:57:55;4.63;;;3.70;;
17510;SDS011;8873;48.818;9.422;2024-02-14T03:00:24;4.95;;;3.80;;
17510;SDS011;8873;48.818;9.422;2024-02-14T03:02:53;6.63;;;3.72;;
17510;SDS011;8873;48.818;9.422;2024-02-14T03:05:20;9.20;;;4.38;;
17510;SDS011;8873;48.818;9.422;2024-02-14T03:07:55;5.25;;;3.85;;
17510;SDS011;8873;48.818;9.422;2024-02-14T03:10:24;4.88;;;3.78;;
17510;SDS011;8873;48.818;9.422;2024-02-14T03:12:52;4.97;;;4.00;;
17510;SDS011;8873;48.818;9.422;2024-02-14T03:15:21;6.32;;;3.83;;
17510;SDS011;8873;48.818;9.422;2024-02-14T03:17:52;7.15;;;4.13;;
17510;SDS011;8873;48.818;9.422;2024-02-14T03:20:20;10.50;;;4.25;;
17510;SDS011;8873;48.818;9.422;2024-02-14T03:22:48;7.20;;;4.38;;
17510;SDS011;8873;48.818;9.422;2024-02-14T03:25:17;8.20;;;4.60;;
17510;SDS011;8873;48.818;9.422;2024-02-14T03:27:45;7.72;;;4.65;;
17510;SDS011;8873;48.818;9.422;2024-02-14T03:30:18;6.63;;;3.88;;
17510;SDS011;8873;48.818;9.422;2024-02-14T03:32:46;5.60;;;4.22;;
17510;SDS011;8873;48.818;9.422;2024-02-14T03:35:14;7.40;;;3.80;;
17510;SDS011;8873;48.818;9.422;2024-02-14T03:37:42;10.45;;;4.38;;
17510;SDS011;8873;48.818;9.422;2024-02-14T03:40:14;4.93;;;4.30;;
17510;SDS011;8873;48.818;9.422;2024-02-14T03:42:43;9.93;;;4.68;;
17510;SDS011;8873;48.818;9.422;2024-02-14T03:45:10;4.78;;;3.33;;
17510;SDS011;8873;48.818;9.422;2024-02-14T03:47:38;9.90;;;4.40;;
17510;SDS011;8873;48.818;9.422;2024-02-14T03:50:08;5.10;;;3.58;;
17510;SDS011;8873;48.818;9.422;2024-02-14T03:52:39;10.83;;;4.40;;
17510;SDS011;8873;48.818;9.422;2024-02-14T03:55:08;8.70;;;4.72;;
17510;SDS011;8873;48.818;9.422;2024-02-14T03:57:39;5.45;;;4.03;;
17510;SDS011;8873;48.818;9.422;2024-02-14T04:00:10;8.43;;;4.17;;
17510;SDS011;8873;48.818;9.422;2024-02-14T04:02:39;6.13;;;3.92;;
17510;SDS011;8873;48.818;9.422;2024-02-14T04:05:07;7.90;;;4.60;;
17510;SDS011;8873;48.818;9.422;2024-02-14T04:07:35;7.03;;;4.93;;
17510;SDS011;8873;48.818;9.422;2024-02-14T04:10:04;10.38;;;4.55;;
17510;SDS011;8873;48.818;9.422;2024-02-14T04:12:35;11.43;;;4.53;;
17510;SDS011;8873;48.818;9.422;2024-02-14T04:15:03;6.72;;;4.13;;
17510;SDS011;8873;48.818;9.422;2024-02-14T04:17:32;6.50;;;4.55;;
17510;SDS011;8873;48.818;9.422;2024-02-14T04:20:01;9.38;;;4.13;;
17510;SDS011;8873;48.818;9.422;2024-02-14T04:22:29;7.55;;;4.38;;
17510;SDS011;8873;48.818;9.422;2024-02-14T04:24:57;8.25;;;4.22;;
17510;SDS011;8873;48.818;9.422;2024-02-14T04:27:25;6.93;;;4.28;;
17510;SDS011;8873;48.818;9.422;2024-02-14T04:29:56;7.03;;;4.05;;
17510;SDS011;8873;48.818;9.422;2024-02-14T04:32:25;6.95;;;3.80;;
17510;SDS011;8873;48.818;9.422;2024-02-14T04:34:53;5.82;;;3.45;;
17510;SDS011;8873;48.818;9.422;2024-02-14T04:37:22;6.90;;;4.15;;
17510;SDS011;8873;48.818;9.422;2024-02-14T04:39:50;6.18;;;4.13;;
17510;SDS011;8873;48.818;9.422;2024-02-14T04:42:18;6.28;;;4.20;;
17510;SDS011;8873;48.818;9.422;2024-02-14T04:44:46;7.97;;;4.25;;
17510;SDS011;8873;48.818;9.422;2024-02-14T04:47:14;6.20;;;4.03;;
17510;SDS011;8873;48.818;9.422;2024-02-14T04:49:43;10.07;;;4.55;;
17510;SDS011;8873;48.818;9.422;2024-02-14T04:52:12;10.95;;;4.53;;
17510;SDS011;8873;48.818;9.422;2024-02-14T04:54:40;10.27;;;3.95;;
17510;SDS011;8873;48.818;9.422;2024-02-14T04:57:07;5.00;;;4.10;;
17510;SDS011;8873;48.818;9.422;2024-02-14T04:59:35;6.43;;;3.72;;
17510;SDS011;8873;48.818;9.422;2024-02-14T05:02:07;6.97;;;4.05;;
17510;SDS011;8873;48.818;9.422;2024-02-14T05:04:34;6.00;;;4.07;;
17510;SDS011;8873;48.818;9.422;2024-02-14T05:07:04;5.30;;;3.53;;
17510;SDS011;8873;48.818;9.422;2024-02-14T05:09:33;4.03;;;3.00;;
17510;SDS011;8873;48.818;9.422;2024-02-14T05:12:01;6.72;;;3.95;;
17510;SDS011;8873;48.818;9.422;2024-02-14T05:14:37;5.60;;;3.85;;
17510;SDS011;8873;48.818;9.422;2024-02-14T05:17:05;4.88;;;3.47;;
17510;SDS011;8873;48.818;9.422;2024-02-14T05:19:36;3.88;;;3.53;;
17510;SDS011;8873;48.818;9.422;2024-02-14T05:22:03;4.65;;;3.97;;
17510;SDS011;8873;48.818;9.422;2024-02-14T05:24:31;5.15;;;4.13;;
17510;SDS011;8873;48.818;9.422;2024-02-14T05:27:02;8.45;;;4.30;;
17510;SDS011;8873;48.818;9.422;2024-02-14T05:29:29;6.00;;;4.10;;
17510;SDS011;8873;48.818;9.422;2024-02-14T05:32:11;7.25;;;4.40;;
17510;SDS011;8873;48.818;9.422;2024-02-14T05:34:38;8.80;;;4.20;;
17510;SDS011;8873;48.818;9.422;2024-02-14T05:37:09;8.73;;;3.80;;
17510;SDS011;8873;48.818;9.422;2024-02-14T05:39:37;6.68;;;3.95;;
17510;SDS011;8873;48.818;9.422;2024-02-14T05:42:06;6.78;;;3.65;;
17510;SDS011;8873;48.818;9.422;2024-02-14T05:44:34;6.18;;;4.43;;
17510;SDS011;8873;48.818;9.422;2024-02-14T05:47:02;4.85;;;4.10;;
17510;SDS011;8873;48.818;9.422;2024-02-14T05:49:30;8.05;;;4.07;;
17510;SDS011;8873;48.818;9.422;2024-02-14T05:51:59;5.20;;;3.92;;
17510;SDS011;8873;48.818;9.422;2024-02-14T05:54:27;7.25;;;4.18;;
17510;SDS011;8873;48.818;9.422;2024-02-14T05:56:55;6.03;;;3.92;;
17510;SDS011;8873;48.818;9.422;2024-02-14T05:59:25;6.07;;;3.90;;
17510;SDS011;8873;48.818;9.422;2024-02-14T06:01:53;6.93;;;3.72;;
17510;SDS011;8873;48.818;9.422;2024-02-14T06:04:20;7.60;;;4.18;;
17510;SDS011;8873;48.818;9.422;2024-02-14T06:06:48;6.57;;;3.72;;
17510;SDS011;8873;48.818;9.422;2024-02-14T06:09:15;5.95;;;3.90;;
17510;SDS011;8873;48.818;9.422;2024-02-14T06:11:43;7.47;;;4.15;;
17510;SDS011;8873;48.818;9.422;2024-02-14T06:14:13;4.93;;;3.55;;
17510;SDS011;8873;48.818;9.422;2024-02-14T06:16:43;11.30;;;5.03;;
17510;SDS011;8873;48.818;9.422;2024-02-14T06:19:10;6.28;;;4.60;;
17510;SDS011;8873;48.818;9.422;2024-02-14T06:21:39;8.23;;;4.90;;
17510;SDS011;8873;48.818;9.422;2024-02-14T06:24:06;5.38;;;4.20;;
17510;SDS011;8873;48.818;9.422;2024-02-14T06:26:37;8.95;;;4.20;;
17510;SDS011;8873;48.818;9.422;2024-02-14T06:29:04;5.88;;;4.28;;
17510;SDS011;8873;48.818;9.422;2024-02-14T06:31:33;9.15;;;4.75;;
17510;SDS011;8873;48.818;9.422;2024-02-14T06:34:02;7.47;;;4.28;;
17510;SDS011;8873;48.818;9.422;2024-02-14T06:36:29;4.40;;;4.00;;
17510;SDS011;8873;48.818;9.422;2024-02-14T06:38:58;6.68;;;4.13;;
17510;SDS011;8873;48.818;9.422;2024-02-14T06:41:25;6.68;;;4.28;;
17510;SDS011;8873;48.818;9.422;2024-02-14T06:43:53;8.40;;;4.15;;
17510;SDS011;8873;48.818;9.422;2024-02-14T06:46:21;7.03;;;4.13;;
17510;SDS011;8873;48.818;9.422;2024-02-14T06:48:49;7.18;;;4.72;;
17510;SDS011;8873;48.818;9.422;2024-02-14T06:51:21;8.75;;;4.00;;
17510;SDS011;8873;48.818;9.422;2024-02-14T06:53:49;10.10;;;4.07;;
17510;SDS011;8873;48.818;9.422;2024-02-14T06:56:16;5.75;;;4.03;;
17510;SDS011;8873;48.818;9.422;2024-02-14T06:58:44;6.18;;;4.28;;
17510;SDS011;8873;48.818;9.422;2024-02-14T07:01:12;8.63;;;4.85;;
17510;SDS011;8873;48.818;9.422;2024-02-14T07:03:43;7.35;;;3.95;;
17510;SDS011;8873;48.818;9.422;2024-02-14T07:06:13;7.22;;;4.10;;
17510;SDS011;8873;48.818;9.422;2024-02-14T07:08:42;9.88;;;4.38;;
17510;SDS011;8873;48.818;9.422;2024-02-14T07:11:09;9.55;;;4.70;;
17510;SDS011;8873;48.818;9.422;2024-02-14T07:13:37;16.10;;;4.85;;
17510;SDS011;8873;48.818;9.422;2024-02-14T07:16:05;7.68;;;4.50;;
17510;SDS011;8873;48.818;9.422;2024-02-14T07:18:37;9.13;;;4.03;;
17510;SDS011;8873;48.818;9.422;2024-02-14T07:21:05;9.23;;;4.22;;
17510;SDS011;8873;48.818;9.422;2024-02-14T07:23:33;10.07;;;4.70;;
17510;SDS011;8873;48.818;9.422;2024-02-14T07:26:09;9.63;;;4.68;;
17510;SDS011;8873;48.818;9.422;2024-02-14T07:28:37;8.68;;;5.18;;
17510;SDS011;8873;48.818;9.422;2024-02-14T07:31:11;10.32;;;5.22;;
17510;SDS011;8873;48.818;9.422;2024-02-14T07:33:39;7.75;;;4.38;;
17510;SDS011;8873;48.818;9.422;2024-02-14T07:36:10;8.73;;;4.15;;
17510;SDS011;8873;48.818;9.422;2024-02-14T07:38:48;6.40;;;4.35;;
17510;SDS011;8873;48.818;9.422;2024-02-14T07:41:18;7.53;;;4.75;;
17510;SDS011;8873;48.818;9.422;2024-02-14T07:43:45;11.02;;;4.38;;
17510;SDS011;8873;48.818;9.422;2024-02-14T07:46:18;12.98;;;4.72;;
17510;SDS011;8873;48.818;9.422;2024-02-14T07:48:46;7.88;;;4.32;;
17510;SDS011;8873;48.818;9.422;2024-02-14T07:51:16;8.02;;;5.00;;
17510;SDS011;8873;48.818;9.422;2024-02-14T07:53:55;9.85;;;5.38;;
17510;SDS011;8873;48.818;9.422;2024-02-14T07:56:24;7.93;;;3.95;;
17510;SDS011;8873;48.818;9.422;2024-02-14T07:58:51;8.07;;;4.72;;
17510;SDS011;8873;48.818;9.422;2024-02-14T08:01:19;11.30;;;4.93;;
17510;SDS011;8873;48.818;9.422;2024-02-14T08:03:47;7.97;;;4.68;;
17510;SDS011;8873;48.818;9.422;2024-02-14T08:06:21;7.82;;;4.32;;
17510;SDS011;8873;48.818;9.422;2024-02-14T08:08:49;10.73;;;4.88;;
17510;SDS011;8873;48.818;9.422;2024-02-14T08:11:20;9.50;;;5.03;;
17510;SDS011;8873;48.818;9.422;2024-02-14T08:13:49;10.75;;;4.35;;
17510;SDS011;8873;48.818;9.422;2024-02-14T08:16:20;9.68;;;4.65;;
17510;SDS011;8873;48.818;9.422;2024-02-14T08:18:48;9.82;;;5.28;;
17510;SDS011;8873;48.818;9.422;2024-02-14T08:21:17;7.55;;;4.80;;
17510;SDS011;8873;48.818;9.422;2024-02-14T08:23:45;12.98;;;5.10;;
17510;SDS011;8873;48.818;9.422;2024-02-14T08:26:13;12.43;;;4.90;;
17510;SDS011;8873;48.818;9.422;2024-02-14T08:28:43;11.65;;;5.60;;
17510;SDS011;8873;48.818;9.422;2024-02-14T08:31:13;8.27;;;4.88;;
17510;SDS011;8873;48.818;9.422;2024-02-14T08:33:40;10.02;;;5.63;;
17510;SDS011;8873;48.818;9.422;2024-02-14T08:36:08;13.38;;;5.82;;
17510;SDS011;8873;48.818;9.422;2024-02-14T08:38:36;11.85;;;6.03;;
17510;SDS011;8873;48.818;9.422;2024-02-14T08:41:04;11.93;;;5.53;;
17510;SDS011;8873;48.818;9.422;2024-02-14T08:43:32;13.77;;;5.65;;
17510;SDS011;8873;48.818;9.422;2024-02-14T08:46:00;10.77;;;6.35;;
17510;SDS011;8873;48.818;9.422;2024-02-14T08:48:30;7.35;;;4.55;;
17510;SDS011;8873;48.818;9.422;2024-02-14T08:51:01;9.10;;;4.70;;
17510;SDS011;8873;48.818;9.422;2024-02-14T08:53:30;12.13;;;5.63;;
17510;SDS011;8873;48.818;9.422;2024-02-14T08:55:58;9.65;;;5.15;;
17510;SDS011;8873;48.818;9.422;2024-02-14T08:58:26;8.20;;;4.80;;
17510;SDS011;8873;48.818;9.422;2024-02-14T09:00:53;11.20;;;5.97;;
17510;SDS011;8873;48.818;9.422;2024-02-14T09:03:39;12.70;;;5.53;;
17510;SDS011;8873;48.818;9.422;2024-02-14T09:06:10;12.35;;;5.05;;
17510;SDS011;8873;48.818;9.422;2024-02-14T09:08:37;10.88;;;5.22;;
17510;SDS011;8873;48.818;9.422;2024-02-14T09:11:05;9.52;;;6.10;;
17510;SDS011;8873;48.818;9.422;2024-02-14T09:13:34;17.52;;;6.85;;
17510;SDS011;8873;48.818;9.422;2024-02-14T09:16:03;11.20;;;5.82;;
17510;SDS011;8873;48.818;9.422;2024-02-14T09:18:31;9.27;;;5.60;;
17510;SDS011;8873;48.818;9.422;2024-02-14T09:21:01;12.27;;;5.63;;
17510;SDS011;8873;48.818;9.422;2024-02-14T09:23:30;9.95;;;5.40;;
17510;SDS011;8873;48.818;9.422;2024-02-14T09:25:59;9.07;;;5.28;;
17510;SDS011;8873;48.818;9.422;2024-02-14T09:28:27;7.82;;;4.85;;
17510;SDS011;8873;48.818;9.422;2024-02-14T09:30:55;6.88;;;5.05;;
17510;SDS011;8873;48.818;9.422;2024-02-14T09:33:23;9.40;;;4.82;;
17510;SDS011;8873;48.818;9.422;2024-02-14T09:35:51;6.60;;;4.63;;
17510;SDS011;8873;48.818;9.422;2024-02-14T09:38:21;9.40;;;5.32;;
17510;SDS011;8873;48.818;9.422;2024-02-14T09:40:49;9.32;;;4.60;;
17510;SDS011;8873;48.818;9.422;2024-02-14T09:43:21;8.75;;;4.75;;
17510;SDS011;8873;48.818;9.422;2024-02-14T09:45:52;10.52;;;4.55;;
17510;SDS011;8873;48.818;9.422;2024-02-14T09:48:21;9.18;;;5.10;;
17510;SDS011;8873;48.818;9.422;2024-02-14T09:50:49;7.57;;;5.32;;
17510;SDS011;8873;48.818;9.422;2024-02-14T09:53:17;10.45;;;4.80;;
17510;SDS011;8873;48.818;9.422;2024-02-14T09:55:47;8.63;;;4.93;;
17510;SDS011;8873;48.818;9.422;2024-02-14T09:58:17;9.95;;;4.85;;
17510;SDS011;8873;48.818;9.422;2024-02-14T10:00:44;10.50;;;5.80;;
17510;SDS011;8873;48.818;9.422;2024-02-14T10:03:15;10.48;;;5.38;;
17510;SDS011;8873;48.818;9.422;2024-02-14T10:05:43;12.23;;;5.60;;
17510;SDS011;8873;48.818;9.422;2024-02-14T10:08:12;12.48;;;5.57;;
17510;SDS011;8873;48.818;9.422;2024-02-14T10:10:40;11.55;;;5.60;;
17510;SDS011;8873;48.818;9.422;2024-02-14T10:13:09;7.43;;;3.88;;
17510;SDS011;8873;48.818;9.422;2024-02-14T10:15:38;6.97;;;4.03;;
17510;SDS011;8873;48.818;9.422;2024-02-14T10:18:06;6.30;;;4.28;;
17510;SDS011;8873;48.818;9.422;2024-02-14T10:20:36;7.82;;;4.00;;
17510;SDS011;8873;48.818;9.422;2024-02-14T10:23:12;6.43;;;3.55;;
17510;SDS011;8873;48.818;9.422;2024-02-14T10:25:40;8.95;;;3.63;;
17510;SDS011;8873;48.818;9.422;2024-02-14T10:28:12;9.70;;;3.88;;
17510;SDS011;8873;48.818;9.422;2024-02-14T10:30:40;7.97;;;3.58;;
17510;SDS011;8873;48.818;9.422;2024-02-14T10:33:08;3.25;;;2.80;;
17510;SDS011;8873;48.818;9.422;2024-02-14T10:35:50;4.88;;;2.88;;
17510;SDS011;8873;48.818;9.422;2024-02-14T10:38:28;4.65;;;2.00;;
17510;SDS011;8873;48.818;9.422;2024-02-14T10:41:02;4.45;;;1.73;;
17510;SDS011;8873;48.818;9.422;2024-02-14T10:43:36;5.13;;;1.67;;
17510;SDS011;8873;48.818;9.422;2024-02-14T10:46:08;1.70;;;1.60;;
17510;SDS011;8873;48.818;9.422;2024-02-14T10:48:38;3.35;;;1.85;;
17510;SDS011;8873;48.818;9.422;2024-02-14T10:51:08;2.70;;;1.30;;
17510;SDS011;8873;48.818;9.422;2024-02-14T10:53:36;1.52;;;1.42;;
17510;SDS011;8873;48.818;9.422;2024-02-14T10:56:09;1.73;;;1.48;;
17510;SDS011;8873;48.818;9.422;2024-02-14T10:58:41;1.35;;;1.27;;
17510;SDS011;8873;48.818;9.422;2024-02-14T11:01:09;1.65;;;1.40;;
17510;SDS011;8873;48.818;9.422;2024-02-14T11:03:38;1.42;;;1.33;;
17510;SDS011;8873;48.818;9.422;2024-02-14T11:06:07;3.00;;;1.38;;
17510;SDS011;8873;48.818;9.422;2024-02-14T11:08:35;1.73;;;1.58;;
17510;SDS011;8873;48.818;9.422;2024-02-14T11:11:06;4.55;;;1.83;;
17510;SDS011;8873;48.818;9.422;2024-02-14T11:13:35;1.50;;;1.40;;
17510;SDS011;8873;48.818;9.422;2024-02-14T11:16:04;1.42;;;1.33;;
17510;SDS011;8873;48.818;9.422;2024-02-14T11:18:33;1.70;;;1.50;;
17510;SDS011;8873;48.818;9.422;2024-02-14T11:21:04;1.63;;;1.52;;
17510;SDS011;8873;48.818;9.422;2024-02-14T11:23:32;2.80;;;1.48;;
17510;SDS011;8873;48.818;9.422;2024-02-14T11:26:00;1.80;;;1.70;;
17510;SDS011;8873;48.818;9.422;2024-02-14T11:28:28;1.30;;;1.30;;
17510;SDS011;8873;48.818;9.422;2024-02-14T11:31:08;2.00;;;1.90;;
17510;SDS011;8873;48.818;9.422;2024-02-14T11:33:45;1.20;;;1.20;;
17510;SDS011;8873;48.818;9.422;2024-02-14T11:36:29;4.63;;;1.52;;
17510;SDS011;8873;48.818;9.422;2024-02-14T11:39:29;1.58;;;1.48;;
17510;SDS011;8873;48.818;9.422;2024-02-14T11:42:00;1.58;;;1.48;;
17510;SDS011;8873;48.818;9.422;2024-02-14T11:44:35;1.45;;;1.35;;
17510;SDS011;8873;48.818;9.422;2024-02-14T11:47:11;2.22;;;1.80;;
17510;SDS011;8873;48.818;9.422;2024-02-14T11:49:45;1.27;;;1.27;;
17510;SDS011;8873;48.818;9.422;2024-02-14T11:52:13;1.20;;;1.20;;
17510;SDS011;8873;48.818;9.422;2024-02-14T11:54:45;1.55;;;1.25;;
17510;SDS011;8873;48.818;9.422;2024-02-14T11:57:16;1.55;;;1.38;;
17510;SDS011;8873;48.818;9.422;2024-02-14T11:59:45;1.20;;;1.20;;
17510;SDS011;8873;48.818;9.422;2024-02-14T12:02:15;3.30;;;1.30;;
17510;SDS011;8873;48.818;9.422;2024-02-14T12:04:46;1.92;;;1.20;;
17510;SDS011;8873;48.818;9.422;2024-02-14T12:07:14;1.75;;;1.40;;
17510;SDS011;8873;48.818;9.422;2024-02-14T12:09:42;1.60;;;1.50;;
17510;SDS011;8873;48.818;9.422;2024-02-14T12:12:10;1.17;;;1.10;;
17510;SDS011;8873;48.818;9.422;2024-02-14T12:14:38;1.90;;;1.80;;
17510;SDS011;8873;48.818;9.422;2024-02-14T12:17:06;1.27;;;1.27;;
17510;SDS011;8873;48.818;9.422;2024-02-14T12:19:35;4.20;;;2.78;;
17510;SDS011;8873;48.818;9.422;2024-02-14T12:22:08;2.30;;;1.70;;
17510;SDS011;8873;48.818;9.422;2024-02-14T12:24:38;2.70;;;1.38;;
17510;SDS011;8873;48.818;9.422;2024-02-14T12:27:05;1.90;;;1.17;;
17510;SDS011;8873;48.818;9.422;2024-02-14T12:29:34;1.13;;;1.13;;
17510;SDS011;8873;48.818;9.422;2024-02-14T12:32:03;3.60;;;1.25;;
17510;SDS011;8873;48.818;9.422;2024-02-14T12:34:31;1.10;;;1.10;;
17510;SDS011;8873;48.818;9.422;2024-02-14T12:37:01;1.63;;;1.50;;
17510;SDS011;8873;48.818;9.422;2024-02-14T12:39:30;2.20;;;1.40;;
17510;SDS011;8873;48.818;9.422;2024-02-14T12:41:57;1.42;;;1.40;;
17510;SDS011;8873;48.818;9.422;2024-02-14T12:44:26;1.40;;;1.30;;
17510;SDS011;8873;48.818;9.422;2024-02-14T12:46:56;1.30;;;1.30;;
17510;SDS011;8873;48.818;9.422;2024-02-14T12:49:24;1.65;;;1.33;;
17510;SDS011;8873;48.818;9.422;2024-02-14T12:51:52;2.58;;;1.13;;
17510;SDS011;8873;48.818;9.422;2024-02-14T12:54:23;1.50;;;1.40;;
17510;SDS011;8873;48.818;9.422;2024-02-14T12:56:51;1.30;;;1.20;;
17510;SDS011;8873;48.818;9.422;2024-02-14T12:59:19;1.17;;;1.17;;
17510;SDS011;8873;48.818;9.422;2024-02-14T13:01:47;3.63;;;1.10;;
17510;SDS011;8873;48.818;9.422;2024-02-14T13:07:42;1.13;;;1.13;;
17510;SDS011;8873;48.818;9.422;2024-02-14T13:10:20;1.10;;;1.10;;
17510;SDS011;8873;48.818;9.422;2024-02-14T13:12:50;1.10;;;1.10;;
17510;SDS011;8873;48.818;9.422;2024-02-14T13:15:22;1.95;;;1.35;;
17510;SDS011;8873;48.818;9.422;2024-02-14T13:17:50;1.10;;;1.00;;
17510;SDS011;8873;48.818;9.422;2024-02-14T13:20:20;1.73;;;1.40;;
17510;SDS011;8873;48.818;9.422;2024-02-14T13:22:51;1.52;;;1.40;;
17510;SDS011;8873;48.818;9.422;2024-02-14T13:25:21;2.15;;;1.50;;
17510;SDS011;8873;48.818;9.422;2024-02-14T13:27:49;1.20;;;1.15;;
17510;SDS011;8873;48.818;9.422;2024-02-14T13:30:16;2.58;;;1.20;;
17510;SDS011;8873;48.818;9.422;2024-02-14T13:32:45;1.27;;;1.27;;
17510;SDS011;8873;48.818;9.422;2024-02-14T13:35:13;1.30;;;1.30;;
17510;SDS011;8873;48.818;9.422;2024-02-14T13:37:42;1.50;;;1.48;;
17510;SDS011;8873;48.818;9.422;2024-02-14T13:40:12;2.15;;;1.30;;
17510;SDS011;8873;48.818;9.422;2024-02-14T13:42:46;1.40;;;1.30;;
17510;SDS011;8873;48.818;9.422;2024-02-14T13:45:14;1.10;;;1.10;;
17510;SDS011;8873;48.818;9.422;2024-02-14T13:47:42;1.75;;;1.55;;
17510;SDS011;8873;48.818;9.422;2024-02-14T13:50:13;1.48;;;1.30;;
17510;SDS011;8873;48.818;9.422;2024-02-14T13:52:42;1.55;;;1.25;;
17510;SDS011;8873;48.818;9.422;2024-02-14T13:55:10;1.33;;;1.30;;
17510;SDS011;8873;48.818;9.422;2024-02-14T13:57:38;1.67;;;1.38;;
17510;SDS011;8873;48.818;9.422;2024-02-14T14:00:10;1.58;;;1.48;;
17510;SDS011;8873;48.818;9.422;2024-02-14T14:02:39;1.40;;;1.15;;
17510;SDS011;8873;48.818;9.422;2024-02-14T14:05:09;1.35;;;1.30;;
17510;SDS011;8873;48.818;9.422;2024-02-14T14:07:43;2.00;;;1.30;;
17510;SDS011;8873;48.818;9.422;2024-02-14T14:10:23;1.00;;;1.00;;
17510;SDS011;8873;48.818;9.422;2024-02-14T14:12:53;0.98;;;0.98;;
17510;SDS011;8873;48.818;9.422;2024-02-14T14:15:22;1.60;;;1.15;;
17510;SDS011;8873;48.818;9.422;2024-02-14T14:17:51;1.33;;;1.20;;
17510;SDS011;8873;48.818;9.422;2024-02-14T14:20:19;1.65;;;1.25;;
17510;SDS011;8873;48.818;9.422;2024-02-14T14:22:47;1.65;;;1.48;;
17510;SDS011;8873;48.818;9.422;2024-02-14T14:25:15;1.98;;;1.63;;
17510;SDS011;8873;48.818;9.422;2024-02-14T14:27:44;1.45;;;1.10;;
17510;SDS011;8873;48.818;9.422;2024-02-14T14:30:12;2.22;;;1.30;;
17510;SDS011;8873;48.818;9.422;2024-02-14T14:32:41;3.78;;;1.63;;
17510;SDS011;8873;48.818;9.422;2024-02-14T14:35:09;2.22;;;1.60;;
17510;SDS011;8873;48.818;9.422;2024-02-14T14:37:38;1.50;;;1.40;;
17510;SDS011;8873;48.818;9.422;2024-02-14T14:40:06;2.10;;;1.65;;
17510;SDS011;8873;48.818;9.422;2024-02-14T14:42:35;1.42;;;1.33;;
17510;SDS011;8873;48.818;9.422;2024-02-14T14:45:06;3.67;;;1.45;;
17510;SDS011;8873;48.818;9.422;2024-02-14T14:47:34;1.73;;;1.63;;
17510;SDS011;8873;48.818;9.422;2024-02-14T14:50:04;3.22;;;2.05;;
17510;SDS011;8873;48.818;9.422;2024-02-14T14:52:33;1.50;;;1.40;;
17510;SDS011;8873;48.818;9.422;2024-02-14T14:55:01;2.28;;;1.38;;
17510;SDS011;8873;48.818;9.422;2024-02-14T14:57:29;1.48;;;1.38;;
17510;SDS011;8873;48.818;9.422;2024-02-14T14:59:57;1.35;;;1.25;;
17510;SDS011;8873;48.818;9.422;2024-02-14T15:02:25;1.33;;;1.23;;
17510;SDS011;8873;48.818;9.422;2024-02-14T15:04:55;1.20;;;1.10;;
17510;SDS011;8873;48.818;9.422;2024-02-14T15:07:25;1.20;;;1.20;;
17510;SDS011;8873;48.818;9.422;2024-02-14T15:12:45;4.00;;;1.58;;
17510;SDS011;8873;48.818;9.422;2024-02-14T15:15:20;2.45;;;1.55;;
17510;SDS011;8873;48.818;9.422;2024-02-14T15:17:47;1.20;;;1.10;;
17510;SDS011;8873;48.818;9.422;2024-02-14T15:20:17;1.35;;;1.23;;